sensor_id;sensor_type;location;lat;lon;timestamp;temperature;humidity
5457;DHT22;2751;49.802;9.944;2023-05-10T00:01:00;15.20;46.40
5457;DHT22;2751;49.802;9.944;2023-05-10T00:03:28;15.20;1.00
5457;DHT22;2751;49.802;9.944;2023-05-10T00:05:56;15.20;1.00
5457;DHT22;2751;49.802;9.944;2023-05-10T00:08:23;15.60;1.00
5457;DHT22;2751;49.802;9.944;2023-05-10T00:10:49;15.30;22.30
5457;DHT22;2751;49.802;9.944;2023-05-10T00:13:16;15.20;1.00
5457;DHT22;2751;49.802;9.944;2023-05-10T00:15:43;15.20;1.00
5457;DHT22;2751;49.802;9.944;2023-05-10T00:18:10;15.20;1.00
5457;DHT22;2751;49.802;9.944;2023-05-10T00:20:37;15.20;1.00
5457;DHT22;2751;49.802;9.944;2023-05-10T00:23:05;15.20;1.00
5457;DHT22;2751;49.802;9.944;2023-05-10T00:25:32;15.10;1.00
5457;DHT22;2751;49.802;9.944;2023-05-10T00:27:59;15.10;1.00
5457;DHT22;2751;49.802;9.944;2023-05-10T00:30:27;15.40;1.00
5457;DHT22;2751;49.802;9.944;2023-05-10T00:32:54;15.10;1.00
5457;DHT22;2751;49.802;9.944;2023-05-10T00:35:20;15.20;1.00
5457;DHT22;2751;49.802;9.944;2023-05-10T00:37:48;15.10;1.00
5457;DHT22;2751;49.802;9.944;2023-05-10T00:40:16;15.10;1.00
5457;DHT22;2751;49.802;9.944;2023-05-10T00:42:43;15.10;1.00
5457;DHT22;2751;49.802;9.944;2023-05-10T00:45:10;15.30;1.00
5457;DHT22;2751;49.802;9.944;2023-05-10T00:47:37;15.10;1.00
5457;DHT22;2751;49.802;9.944;2023-05-10T00:50:05;15.10;1.00
5457;DHT22;2751;49.802;9.944;2023-05-10T00:52:32;15.10;1.00
5457;DHT22;2751;49.802;9.944;2023-05-10T00:55:00;15.10;1.00
5457;DHT22;2751;49.802;9.944;2023-05-10T00:57:30;15.20;1.00
5457;DHT22;2751;49.802;9.944;2023-05-10T00:59:57;15.10;1.00
5457;DHT22;2751;49.802;9.944;2023-05-10T01:02:25;15.10;1.00
5457;DHT22;2751;49.802;9.944;2023-05-10T01:04:52;15.10;1.00
5457;DHT22;2751;49.802;9.944;2023-05-10T01:07:19;15.00;1.00
5457;DHT22;2751;49.802;9.944;2023-05-10T01:09:46;15.00;1.00
5457;DHT22;2751;49.802;9.944;2023-05-10T01:12:15;15.00;1.00
5457;DHT22;2751;49.802;9.944;2023-05-10T01:14:43;15.00;1.00
5457;DHT22;2751;49.802;9.944;2023-05-10T01:17:10;15.10;5.40
5457;DHT22;2751;49.802;9.944;2023-05-10T01:19:37;15.40;7.10
5457;DHT22;2751;49.802;9.944;2023-05-10T01:22:12;15.20;27.80
5457;DHT22;2751;49.802;9.944;2023-05-10T01:25:11;15.10;25.60
5457;DHT22;2751;49.802;9.944;2023-05-10T01:28:23;15.00;22.40
5457;DHT22;2751;49.802;9.944;2023-05-10T01:31:25;15.00;34.10
5457;DHT22;2751;49.802;9.944;2023-05-10T01:33:59;14.90;41.50
5457;DHT22;2751;49.802;9.944;2023-05-10T01:36:31;14.90;85.10
5457;DHT22;2751;49.802;9.944;2023-05-10T01:39:02;14.90;35.80
5457;DHT22;2751;49.802;9.944;2023-05-10T01:41:40;14.90;62.50
5457;DHT22;2751;49.802;9.944;2023-05-10T01:44:14;14.90;99.90
5457;DHT22;2751;49.802;9.944;2023-05-10T01:46:43;14.90;99.90
5457;DHT22;2751;49.802;9.944;2023-05-10T01:49:18;14.90;36.30
5457;DHT22;2751;49.802;9.944;2023-05-10T01:51:50;14.80;1.00
5457;DHT22;2751;49.802;9.944;2023-05-10T01:54:20;14.80;1.00
5457;DHT22;2751;49.802;9.944;2023-05-10T01:56:52;14.80;1.00
5457;DHT22;2751;49.802;9.944;2023-05-10T01:59:22;14.80;1.00
5457;DHT22;2751;49.802;9.944;2023-05-10T02:01:54;14.80;1.00
5457;DHT22;2751;49.802;9.944;2023-05-10T02:04:25;14.80;1.00
5457;DHT22;2751;49.802;9.944;2023-05-10T02:06:53;14.80;1.00
5457;DHT22;2751;49.802;9.944;2023-05-10T02:09:21;14.80;1.00
5457;DHT22;2751;49.802;9.944;2023-05-10T02:11:49;14.80;1.00
5457;DHT22;2751;49.802;9.944;2023-05-10T02:14:18;14.80;1.00
5457;DHT22;2751;49.802;9.944;2023-05-10T02:16:46;14.70;1.00
5457;DHT22;2751;49.802;9.944;2023-05-10T02:19:14;14.60;99.90
5457;DHT22;2751;49.802;9.944;2023-05-10T02:21:43;14.60;99.90
5457;DHT22;2751;49.802;9.944;2023-05-10T02:24:11;14.60;1.00
5457;DHT22;2751;49.802;9.944;2023-05-10T02:26:38;14.50;99.90
5457;DHT22;2751;49.802;9.944;2023-05-10T02:29:06;14.50;99.90
5457;DHT22;2751;49.802;9.944;2023-05-10T02:31:35;14.40;99.90
5457;DHT22;2751;49.802;9.944;2023-05-10T02:34:04;14.40;99.90
5457;DHT22;2751;49.802;9.944;2023-05-10T02:36:33;14.40;99.90
5457;DHT22;2751;49.802;9.944;2023-05-10T02:39:02;14.30;99.90
5457;DHT22;2751;49.802;9.944;2023-05-10T02:41:30;14.30;99.90
5457;DHT22;2751;49.802;9.944;2023-05-10T02:44:00;14.40;99.90
5457;DHT22;2751;49.802;9.944;2023-05-10T02:46:28;14.40;99.90
5457;DHT22;2751;49.802;9.944;2023-05-10T02:48:55;14.30;99.90
5457;DHT22;2751;49.802;9.944;2023-05-10T02:51:25;14.30;99.90
5457;DHT22;2751;49.802;9.944;2023-05-10T02:53:55;14.30;99.90
5457;DHT22;2751;49.802;9.944;2023-05-10T02:56:28;14.20;99.90
5457;DHT22;2751;49.802;9.944;2023-05-10T02:58:56;14.10;84.30
5457;DHT22;2751;49.802;9.944;2023-05-10T03:01:23;14.10;99.90
5457;DHT22;2751;49.802;9.944;2023-05-10T03:03:50;14.10;99.90
5457;DHT22;2751;49.802;9.944;2023-05-10T03:06:17;14.10;99.90
5457;DHT22;2751;49.802;9.944;2023-05-10T03:08:44;14.10;99.90
5457;DHT22;2751;49.802;9.944;2023-05-10T03:11:31;14.00;99.90
5457;DHT22;2751;49.802;9.944;2023-05-10T03:14:10;14.00;99.90
5457;DHT22;2751;49.802;9.944;2023-05-10T03:16:45;13.90;99.90
5457;DHT22;2751;49.802;9.944;2023-05-10T03:19:17;13.90;99.90
5457;DHT22;2751;49.802;9.944;2023-05-10T03:21:49;13.80;99.90
5457;DHT22;2751;49.802;9.944;2023-05-10T03:24:20;13.70;99.90
5457;DHT22;2751;49.802;9.944;2023-05-10T03:26:51;13.70;99.90
5457;DHT22;2751;49.802;9.944;2023-05-10T03:29:20;13.70;99.90
5457;DHT22;2751;49.802;9.944;2023-05-10T03:31:48;13.60;99.90
5457;DHT22;2751;49.802;9.944;2023-05-10T03:34:15;13.60;99.90
5457;DHT22;2751;49.802;9.944;2023-05-10T03:36:42;13.60;99.90
5457;DHT22;2751;49.802;9.944;2023-05-10T03:39:09;13.60;99.90
5457;DHT22;2751;49.802;9.944;2023-05-10T03:41:36;13.60;99.90
5457;DHT22;2751;49.802;9.944;2023-05-10T03:44:04;13.50;99.90
5457;DHT22;2751;49.802;9.944;2023-05-10T03:46:31;13.60;99.90
5457;DHT22;2751;49.802;9.944;2023-05-10T03:48:58;13.60;99.90
5457;DHT22;2751;49.802;9.944;2023-05-10T03:51:25;13.60;99.90
5457;DHT22;2751;49.802;9.944;2023-05-10T03:53:53;13.60;99.90
5457;DHT22;2751;49.802;9.944;2023-05-10T03:56:20;13.60;99.90
5457;DHT22;2751;49.802;9.944;2023-05-10T03:58:47;13.70;99.90
5457;DHT22;2751;49.802;9.944;2023-05-10T04:01:15;13.70;99.90
5457;DHT22;2751;49.802;9.944;2023-05-10T04:03:42;13.70;99.90
5457;DHT22;2751;49.802;9.944;2023-05-10T04:06:09;13.80;99.90
5457;DHT22;2751;49.802;9.944;2023-05-10T04:08:37;13.80;99.90
5457;DHT22;2751;49.802;9.944;2023-05-10T04:11:07;13.80;99.90
5457;DHT22;2751;49.802;9.944;2023-05-10T04:13:34;13.80;99.90
5457;DHT22;2751;49.802;9.944;2023-05-10T04:16:01;13.80;99.90
5457;DHT22;2751;49.802;9.944;2023-05-10T04:18:29;13.80;1.00
5457;DHT22;2751;49.802;9.944;2023-05-10T04:20:56;13.80;97.30
5457;DHT22;2751;49.802;9.944;2023-05-10T04:23:23;13.80;1.00
5457;DHT22;2751;49.802;9.944;2023-05-10T04:25:50;13.80;1.00
5457;DHT22;2751;49.802;9.944;2023-05-10T04:28:17;13.80;1.00
5457;DHT22;2751;49.802;9.944;2023-05-10T04:30:44;13.70;1.00
5457;DHT22;2751;49.802;9.944;2023-05-10T04:33:11;13.70;1.00
5457;DHT22;2751;49.802;9.944;2023-05-10T04:35:39;13.80;1.00
5457;DHT22;2751;49.802;9.944;2023-05-10T04:38:06;13.80;1.00
5457;DHT22;2751;49.802;9.944;2023-05-10T04:40:33;13.80;1.00
5457;DHT22;2751;49.802;9.944;2023-05-10T04:43:00;13.90;13.40
5457;DHT22;2751;49.802;9.944;2023-05-10T04:45:27;14.00;1.00
5457;DHT22;2751;49.802;9.944;2023-05-10T04:47:53;14.00;1.00
5457;DHT22;2751;49.802;9.944;2023-05-10T04:50:20;14.00;1.00
5457;DHT22;2751;49.802;9.944;2023-05-10T04:52:48;14.00;1.00
5457;DHT22;2751;49.802;9.944;2023-05-10T04:55:15;14.00;1.00
5457;DHT22;2751;49.802;9.944;2023-05-10T04:57:42;14.00;1.00
5457;DHT22;2751;49.802;9.944;2023-05-10T05:00:11;14.00;1.00
5457;DHT22;2751;49.802;9.944;2023-05-10T05:02:38;14.00;1.00
5457;DHT22;2751;49.802;9.944;2023-05-10T05:05:06;14.00;99.90
5457;DHT22;2751;49.802;9.944;2023-05-10T05:07:32;14.10;1.00
5457;DHT22;2751;49.802;9.944;2023-05-10T05:10:01;14.10;99.90
5457;DHT22;2751;49.802;9.944;2023-05-10T05:12:28;14.20;99.90
5457;DHT22;2751;49.802;9.944;2023-05-10T05:14:55;14.20;99.90
5457;DHT22;2751;49.802;9.944;2023-05-10T05:17:22;14.30;98.40
5457;DHT22;2751;49.802;9.944;2023-05-10T05:19:49;14.30;99.90
5457;DHT22;2751;49.802;9.944;2023-05-10T05:22:15;14.40;99.90
5457;DHT22;2751;49.802;9.944;2023-05-10T05:24:42;14.50;99.90
5457;DHT22;2751;49.802;9.944;2023-05-10T05:27:11;14.50;99.90
5457;DHT22;2751;49.802;9.944;2023-05-10T05:29:38;14.60;1.00
5457;DHT22;2751;49.802;9.944;2023-05-10T05:32:05;14.60;99.90
5457;DHT22;2751;49.802;9.944;2023-05-10T05:34:33;14.60;1.00
5457;DHT22;2751;49.802;9.944;2023-05-10T05:37:00;14.60;1.00
5457;DHT22;2751;49.802;9.944;2023-05-10T05:39:27;14.70;13.80
5457;DHT22;2751;49.802;9.944;2023-05-10T05:41:54;14.80;99.90
5457;DHT22;2751;49.802;9.944;2023-05-10T05:44:23;14.80;99.90
5457;DHT22;2751;49.802;9.944;2023-05-10T05:46:49;14.80;99.90
5457;DHT22;2751;49.802;9.944;2023-05-10T05:49:17;14.90;99.90
5457;DHT22;2751;49.802;9.944;2023-05-10T05:51:44;15.00;99.90
5457;DHT22;2751;49.802;9.944;2023-05-10T05:54:11;15.10;99.90
5457;DHT22;2751;49.802;9.944;2023-05-10T05:56:38;15.10;99.90
5457;DHT22;2751;49.802;9.944;2023-05-10T05:59:05;15.10;99.90
5457;DHT22;2751;49.802;9.944;2023-05-10T06:01:33;15.20;99.90
5457;DHT22;2751;49.802;9.944;2023-05-10T06:04:00;15.20;99.90
5457;DHT22;2751;49.802;9.944;2023-05-10T06:06:27;15.30;99.90
5457;DHT22;2751;49.802;9.944;2023-05-10T06:08:54;15.40;99.90
5457;DHT22;2751;49.802;9.944;2023-05-10T06:11:21;15.50;99.90
5457;DHT22;2751;49.802;9.944;2023-05-10T06:13:48;15.60;99.90
5457;DHT22;2751;49.802;9.944;2023-05-10T06:16:15;15.70;99.90
5457;DHT22;2751;49.802;9.944;2023-05-10T06:18:43;15.70;99.90
5457;DHT22;2751;49.802;9.944;2023-05-10T06:21:10;15.90;99.90
5457;DHT22;2751;49.802;9.944;2023-05-10T06:23:37;16.10;99.90
5457;DHT22;2751;49.802;9.944;2023-05-10T06:26:04;16.10;99.90
5457;DHT22;2751;49.802;9.944;2023-05-10T06:28:31;16.10;99.90
5457;DHT22;2751;49.802;9.944;2023-05-10T06:30:59;16.20;99.90
5457;DHT22;2751;49.802;9.944;2023-05-10T06:33:25;16.40;99.90
5457;DHT22;2751;49.802;9.944;2023-05-10T06:35:54;16.40;99.90
5457;DHT22;2751;49.802;9.944;2023-05-10T06:38:21;16.30;99.90
5457;DHT22;2751;49.802;9.944;2023-05-10T06:40:48;16.50;99.90
5457;DHT22;2751;49.802;9.944;2023-05-10T06:43:15;16.60;99.90
5457;DHT22;2751;49.802;9.944;2023-05-10T06:45:42;16.60;99.90
5457;DHT22;2751;49.802;9.944;2023-05-10T06:48:08;16.60;99.90
5457;DHT22;2751;49.802;9.944;2023-05-10T06:50:35;16.70;99.90
5457;DHT22;2751;49.802;9.944;2023-05-10T06:53:04;16.50;99.90
5457;DHT22;2751;49.802;9.944;2023-05-10T06:55:30;16.10;99.90
5457;DHT22;2751;49.802;9.944;2023-05-10T06:57:57;16.20;99.90
5457;DHT22;2751;49.802;9.944;2023-05-10T07:00:24;16.20;99.90
5457;DHT22;2751;49.802;9.944;2023-05-10T07:02:51;16.20;99.90
5457;DHT22;2751;49.802;9.944;2023-05-10T07:05:18;16.10;99.90
5457;DHT22;2751;49.802;9.944;2023-05-10T07:07:45;15.90;99.90
5457;DHT22;2751;49.802;9.944;2023-05-10T07:10:13;15.90;99.90
5457;DHT22;2751;49.802;9.944;2023-05-10T07:12:40;15.90;99.90
5457;DHT22;2751;49.802;9.944;2023-05-10T07:15:08;15.80;99.90
5457;DHT22;2751;49.802;9.944;2023-05-10T07:17:35;15.90;99.90
5457;DHT22;2751;49.802;9.944;2023-05-10T07:20:02;16.00;99.90
5457;DHT22;2751;49.802;9.944;2023-05-10T07:22:30;16.00;99.90
5457;DHT22;2751;49.802;9.944;2023-05-10T07:24:57;16.10;99.90
5457;DHT22;2751;49.802;9.944;2023-05-10T07:27:25;16.10;99.90
5457;DHT22;2751;49.802;9.944;2023-05-10T07:29:52;16.00;99.90
5457;DHT22;2751;49.802;9.944;2023-05-10T07:32:20;16.10;99.90
5457;DHT22;2751;49.802;9.944;2023-05-10T07:34:47;16.00;99.90
5457;DHT22;2751;49.802;9.944;2023-05-10T07:37:13;16.10;99.90
5457;DHT22;2751;49.802;9.944;2023-05-10T07:39:40;16.20;99.90
5457;DHT22;2751;49.802;9.944;2023-05-10T07:42:07;16.20;99.90
5457;DHT22;2751;49.802;9.944;2023-05-10T07:44:35;16.10;99.90
5457;DHT22;2751;49.802;9.944;2023-05-10T07:47:02;16.30;99.90
5457;DHT22;2751;49.802;9.944;2023-05-10T07:49:29;16.50;99.90
5457;DHT22;2751;49.802;9.944;2023-05-10T07:51:56;16.30;99.90
5457;DHT22;2751;49.802;9.944;2023-05-10T07:54:23;16.00;99.90
5457;DHT22;2751;49.802;9.944;2023-05-10T07:56:50;16.00;99.90
5457;DHT22;2751;49.802;9.944;2023-05-10T07:59:17;16.20;99.90
5457;DHT22;2751;49.802;9.944;2023-05-10T08:01:45;16.30;99.90
5457;DHT22;2751;49.802;9.944;2023-05-10T08:04:12;16.40;99.90
5457;DHT22;2751;49.802;9.944;2023-05-10T08:06:39;16.60;99.90
5457;DHT22;2751;49.802;9.944;2023-05-10T08:09:06;16.70;99.90
5457;DHT22;2751;49.802;9.944;2023-05-10T08:11:33;16.70;99.90
5457;DHT22;2751;49.802;9.944;2023-05-10T08:14:00;16.60;99.90
5457;DHT22;2751;49.802;9.944;2023-05-10T08:16:27;16.60;99.90
5457;DHT22;2751;49.802;9.944;2023-05-10T08:18:55;16.70;99.90
5457;DHT22;2751;49.802;9.944;2023-05-10T08:21:22;16.90;99.90
5457;DHT22;2751;49.802;9.944;2023-05-10T08:23:49;16.90;99.90
5457;DHT22;2751;49.802;9.944;2023-05-10T08:26:16;17.10;99.90
5457;DHT22;2751;49.802;9.944;2023-05-10T08:28:43;17.40;99.90
5457;DHT22;2751;49.802;9.944;2023-05-10T08:31:10;17.30;99.90
5457;DHT22;2751;49.802;9.944;2023-05-10T08:33:37;17.40;99.90
5457;DHT22;2751;49.802;9.944;2023-05-10T08:36:05;17.50;99.90
5457;DHT22;2751;49.802;9.944;2023-05-10T08:38:32;17.60;99.90
5457;DHT22;2751;49.802;9.944;2023-05-10T08:40:59;18.00;99.90
5457;DHT22;2751;49.802;9.944;2023-05-10T08:43:28;18.10;99.90
5457;DHT22;2751;49.802;9.944;2023-05-10T08:45:55;17.70;99.90
5457;DHT22;2751;49.802;9.944;2023-05-10T08:48:23;17.40;99.90
5457;DHT22;2751;49.802;9.944;2023-05-10T08:50:53;17.30;99.90
5457;DHT22;2751;49.802;9.944;2023-05-10T08:53:24;17.10;99.90
5457;DHT22;2751;49.802;9.944;2023-05-10T08:55:53;17.00;99.90
5457;DHT22;2751;49.802;9.944;2023-05-10T08:58:19;16.80;99.90
5457;DHT22;2751;49.802;9.944;2023-05-10T09:00:48;16.70;99.90
5457;DHT22;2751;49.802;9.944;2023-05-10T09:03:15;16.60;99.90
5457;DHT22;2751;49.802;9.944;2023-05-10T09:05:42;16.50;99.90
5457;DHT22;2751;49.802;9.944;2023-05-10T09:08:11;16.60;99.90
5457;DHT22;2751;49.802;9.944;2023-05-10T09:10:40;16.60;99.90
5457;DHT22;2751;49.802;9.944;2023-05-10T09:13:09;16.60;99.90
5457;DHT22;2751;49.802;9.944;2023-05-10T09:15:36;16.70;99.90
5457;DHT22;2751;49.802;9.944;2023-05-10T09:18:03;16.90;99.90
5457;DHT22;2751;49.802;9.944;2023-05-10T09:20:30;17.20;99.90
5457;DHT22;2751;49.802;9.944;2023-05-10T09:22:57;17.50;99.90
5457;DHT22;2751;49.802;9.944;2023-05-10T09:25:24;17.50;99.90
5457;DHT22;2751;49.802;9.944;2023-05-10T09:27:52;17.50;99.90
5457;DHT22;2751;49.802;9.944;2023-05-10T09:30:24;17.70;99.90
5457;DHT22;2751;49.802;9.944;2023-05-10T09:32:52;17.40;99.90
5457;DHT22;2751;49.802;9.944;2023-05-10T09:35:20;17.10;99.90
5457;DHT22;2751;49.802;9.944;2023-05-10T09:37:50;17.10;99.90
5457;DHT22;2751;49.802;9.944;2023-05-10T09:40:18;17.10;99.90
5457;DHT22;2751;49.802;9.944;2023-05-10T09:42:53;17.00;99.90
5457;DHT22;2751;49.802;9.944;2023-05-10T09:45:21;17.20;99.90
5457;DHT22;2751;49.802;9.944;2023-05-10T09:47:48;17.50;99.90
5457;DHT22;2751;49.802;9.944;2023-05-10T09:50:15;17.60;99.90
5457;DHT22;2751;49.802;9.944;2023-05-10T09:52:49;17.60;99.90
5457;DHT22;2751;49.802;9.944;2023-05-10T09:55:18;17.60;99.90
5457;DHT22;2751;49.802;9.944;2023-05-10T09:57:45;17.90;99.90
5457;DHT22;2751;49.802;9.944;2023-05-10T10:00:18;18.30;99.90
5457;DHT22;2751;49.802;9.944;2023-05-10T10:02:46;19.50;99.90
5457;DHT22;2751;49.802;9.944;2023-05-10T10:05:14;20.40;99.90
5457;DHT22;2751;49.802;9.944;2023-05-10T10:07:41;22.00;99.90
5457;DHT22;2751;49.802;9.944;2023-05-10T10:10:10;22.70;99.90
5457;DHT22;2751;49.802;9.944;2023-05-10T10:12:41;22.90;99.90
5457;DHT22;2751;49.802;9.944;2023-05-10T10:15:08;23.40;99.90
5457;DHT22;2751;49.802;9.944;2023-05-10T10:17:37;24.70;1.00
5457;DHT22;2751;49.802;9.944;2023-05-10T10:20:06;24.50;1.00
5457;DHT22;2751;49.802;9.944;2023-05-10T10:22:34;22.90;1.00
5457;DHT22;2751;49.802;9.944;2023-05-10T10:25:01;22.50;1.00
5457;DHT22;2751;49.802;9.944;2023-05-10T10:27:45;22.50;1.00
5457;DHT22;2751;49.802;9.944;2023-05-10T10:30:21;22.30;1.00
5457;DHT22;2751;49.802;9.944;2023-05-10T10:33:18;21.10;1.00
5457;DHT22;2751;49.802;9.944;2023-05-10T10:35:52;20.40;1.00
5457;DHT22;2751;49.802;9.944;2023-05-10T10:38:20;20.80;1.00
5457;DHT22;2751;49.802;9.944;2023-05-10T10:40:48;21.00;1.00
5457;DHT22;2751;49.802;9.944;2023-05-10T10:43:22;20.80;1.00
5457;DHT22;2751;49.802;9.944;2023-05-10T10:46:11;21.20;1.00
5457;DHT22;2751;49.802;9.944;2023-05-10T10:48:40;20.80;1.00
5457;DHT22;2751;49.802;9.944;2023-05-10T10:51:07;20.50;1.00
5457;DHT22;2751;49.802;9.944;2023-05-10T10:53:34;20.40;1.00
5457;DHT22;2751;49.802;9.944;2023-05-10T10:56:07;20.30;1.00
5457;DHT22;2751;49.802;9.944;2023-05-10T10:58:35;20.70;1.00
5457;DHT22;2751;49.802;9.944;2023-05-10T11:01:10;21.20;1.00
5457;DHT22;2751;49.802;9.944;2023-05-10T11:03:37;21.30;1.00
5457;DHT22;2751;49.802;9.944;2023-05-10T11:06:06;21.90;1.00
5457;DHT22;2751;49.802;9.944;2023-05-10T11:08:42;22.10;1.00
5457;DHT22;2751;49.802;9.944;2023-05-10T11:11:14;21.70;1.00
5457;DHT22;2751;49.802;9.944;2023-05-10T11:13:42;20.90;1.00
5457;DHT22;2751;49.802;9.944;2023-05-10T11:16:12;20.90;1.00
5457;DHT22;2751;49.802;9.944;2023-05-10T11:18:39;21.60;1.00
5457;DHT22;2751;49.802;9.944;2023-05-10T11:21:09;21.00;1.00
5457;DHT22;2751;49.802;9.944;2023-05-10T11:23:48;20.60;1.00
5457;DHT22;2751;49.802;9.944;2023-05-10T11:26:16;21.00;1.00
5457;DHT22;2751;49.802;9.944;2023-05-10T11:28:43;22.20;1.00
5457;DHT22;2751;49.802;9.944;2023-05-10T11:31:10;22.80;1.00
5457;DHT22;2751;49.802;9.944;2023-05-10T11:33:43;22.80;1.00
5457;DHT22;2751;49.802;9.944;2023-05-10T11:36:14;22.70;1.00
5457;DHT22;2751;49.802;9.944;2023-05-10T11:38:41;22.90;1.00
5457;DHT22;2751;49.802;9.944;2023-05-10T11:41:08;22.30;1.00
5457;DHT22;2751;49.802;9.944;2023-05-10T11:43:36;21.90;1.00
5457;DHT22;2751;49.802;9.944;2023-05-10T11:46:04;21.50;1.00
5457;DHT22;2751;49.802;9.944;2023-05-10T11:48:31;21.50;1.00
5457;DHT22;2751;49.802;9.944;2023-05-10T11:51:00;21.70;1.00
5457;DHT22;2751;49.802;9.944;2023-05-10T11:53:31;21.50;1.00
5457;DHT22;2751;49.802;9.944;2023-05-10T11:56:03;21.50;1.00
5457;DHT22;2751;49.802;9.944;2023-05-10T11:58:30;21.80;1.00
5457;DHT22;2751;49.802;9.944;2023-05-10T12:00:58;22.40;1.00
5457;DHT22;2751;49.802;9.944;2023-05-10T12:03:25;22.40;1.00
5457;DHT22;2751;49.802;9.944;2023-05-10T12:05:52;22.70;1.00
5457;DHT22;2751;49.802;9.944;2023-05-10T12:08:21;22.10;1.00
5457;DHT22;2751;49.802;9.944;2023-05-10T12:10:49;21.70;1.00
5457;DHT22;2751;49.802;9.944;2023-05-10T12:13:17;21.10;1.00
5457;DHT22;2751;49.802;9.944;2023-05-10T12:15:44;21.20;1.00
5457;DHT22;2751;49.802;9.944;2023-05-10T12:18:11;21.60;1.00
5457;DHT22;2751;49.802;9.944;2023-05-10T12:20:39;21.80;1.00
5457;DHT22;2751;49.802;9.944;2023-05-10T12:23:08;21.40;1.00
5457;DHT22;2751;49.802;9.944;2023-05-10T12:25:37;21.10;1.00
5457;DHT22;2751;49.802;9.944;2023-05-10T12:28:07;21.60;1.00
5457;DHT22;2751;49.802;9.944;2023-05-10T12:30:35;22.40;1.00
5457;DHT22;2751;49.802;9.944;2023-05-10T12:33:08;22.40;1.00
5457;DHT22;2751;49.802;9.944;2023-05-10T12:35:44;22.50;1.00
5457;DHT22;2751;49.802;9.944;2023-05-10T12:38:28;22.70;1.00
5457;DHT22;2751;49.802;9.944;2023-05-10T12:40:56;22.40;1.00
5457;DHT22;2751;49.802;9.944;2023-05-10T12:43:25;22.30;1.00
5457;DHT22;2751;49.802;9.944;2023-05-10T12:45:51;22.20;1.00
5457;DHT22;2751;49.802;9.944;2023-05-10T12:48:19;20.80;1.00
5457;DHT22;2751;49.802;9.944;2023-05-10T12:50:46;18.90;1.00
5457;DHT22;2751;49.802;9.944;2023-05-10T12:53:13;17.60;1.00
5457;DHT22;2751;49.802;9.944;2023-05-10T12:55:41;17.00;1.00
5457;DHT22;2751;49.802;9.944;2023-05-10T12:58:07;16.70;1.00
5457;DHT22;2751;49.802;9.944;2023-05-10T13:00:36;16.30;99.90
5457;DHT22;2751;49.802;9.944;2023-05-10T13:03:03;16.00;99.90
5457;DHT22;2751;49.802;9.944;2023-05-10T13:05:31;15.60;99.90
5457;DHT22;2751;49.802;9.944;2023-05-10T13:07:57;15.10;99.90
5457;DHT22;2751;49.802;9.944;2023-05-10T13:10:24;14.80;99.90
5457;DHT22;2751;49.802;9.944;2023-05-10T13:12:51;14.50;99.90
5457;DHT22;2751;49.802;9.944;2023-05-10T13:15:18;14.30;99.90
5457;DHT22;2751;49.802;9.944;2023-05-10T13:17:46;14.20;99.90
5457;DHT22;2751;49.802;9.944;2023-05-10T13:20:13;14.10;99.90
5457;DHT22;2751;49.802;9.944;2023-05-10T13:22:41;14.20;99.90
5457;DHT22;2751;49.802;9.944;2023-05-10T13:25:08;14.10;99.90
5457;DHT22;2751;49.802;9.944;2023-05-10T13:27:35;14.00;99.90
5457;DHT22;2751;49.802;9.944;2023-05-10T13:30:02;14.10;99.90
5457;DHT22;2751;49.802;9.944;2023-05-10T13:32:29;14.20;99.90
5457;DHT22;2751;49.802;9.944;2023-05-10T13:34:58;14.20;99.90
5457;DHT22;2751;49.802;9.944;2023-05-10T13:37:24;14.30;99.90
5457;DHT22;2751;49.802;9.944;2023-05-10T13:39:51;14.40;99.90
5457;DHT22;2751;49.802;9.944;2023-05-10T13:42:18;14.50;99.90
5457;DHT22;2751;49.802;9.944;2023-05-10T13:44:45;14.60;99.90
5457;DHT22;2751;49.802;9.944;2023-05-10T13:47:12;14.60;99.90
5457;DHT22;2751;49.802;9.944;2023-05-10T13:49:39;14.70;99.90
5457;DHT22;2751;49.802;9.944;2023-05-10T13:52:07;14.70;99.90
5457;DHT22;2751;49.802;9.944;2023-05-10T13:54:35;14.80;99.90
5457;DHT22;2751;49.802;9.944;2023-05-10T13:57:03;14.80;99.90
5457;DHT22;2751;49.802;9.944;2023-05-10T13:59:30;14.90;99.90
5457;DHT22;2751;49.802;9.944;2023-05-10T14:01:57;14.90;99.90
5457;DHT22;2751;49.802;9.944;2023-05-10T14:04:24;14.90;99.90
5457;DHT22;2751;49.802;9.944;2023-05-10T14:06:51;14.80;99.90
5457;DHT22;2751;49.802;9.944;2023-05-10T14:09:20;14.80;99.90
5457;DHT22;2751;49.802;9.944;2023-05-10T14:11:47;14.80;99.90
5457;DHT22;2751;49.802;9.944;2023-05-10T14:14:14;14.80;99.90
5457;DHT22;2751;49.802;9.944;2023-05-10T14:16:42;14.90;99.90
5457;DHT22;2751;49.802;9.944;2023-05-10T14:19:10;15.00;99.90
5457;DHT22;2751;49.802;9.944;2023-05-10T14:21:37;14.90;99.90
5457;DHT22;2751;49.802;9.944;2023-05-10T14:24:04;14.90;99.90
5457;DHT22;2751;49.802;9.944;2023-05-10T14:26:33;15.00;99.90
5457;DHT22;2751;49.802;9.944;2023-05-10T14:29:00;15.00;99.90
5457;DHT22;2751;49.802;9.944;2023-05-10T14:31:27;15.10;99.90
5457;DHT22;2751;49.802;9.944;2023-05-10T14:33:55;15.20;99.90
5457;DHT22;2751;49.802;9.944;2023-05-10T14:36:22;15.10;99.90
5457;DHT22;2751;49.802;9.944;2023-05-10T14:38:49;15.10;99.90
5457;DHT22;2751;49.802;9.944;2023-05-10T14:41:16;15.20;99.90
5457;DHT22;2751;49.802;9.944;2023-05-10T14:43:44;15.20;99.90
5457;DHT22;2751;49.802;9.944;2023-05-10T14:46:11;15.30;99.90
5457;DHT22;2751;49.802;9.944;2023-05-10T14:48:38;15.40;99.90
5457;DHT22;2751;49.802;9.944;2023-05-10T14:51:05;15.40;99.90
5457;DHT22;2751;49.802;9.944;2023-05-10T14:53:32;15.50;99.90
5457;DHT22;2751;49.802;9.944;2023-05-10T14:55:59;15.50;99.90
5457;DHT22;2751;49.802;9.944;2023-05-10T14:58:26;15.50;99.90
5457;DHT22;2751;49.802;9.944;2023-05-10T15:00:55;15.50;99.90
5457;DHT22;2751;49.802;9.944;2023-05-10T15:03:22;15.70;99.90
5457;DHT22;2751;49.802;9.944;2023-05-10T15:05:49;15.80;99.90
5457;DHT22;2751;49.802;9.944;2023-05-10T15:08:16;15.90;99.90
5457;DHT22;2751;49.802;9.944;2023-05-10T15:10:43;16.10;99.90
5457;DHT22;2751;49.802;9.944;2023-05-10T15:13:10;16.10;99.90
5457;DHT22;2751;49.802;9.944;2023-05-10T15:15:37;16.20;99.90
5457;DHT22;2751;49.802;9.944;2023-05-10T15:18:05;16.20;99.90
5457;DHT22;2751;49.802;9.944;2023-05-10T15:20:32;16.30;99.90
5457;DHT22;2751;49.802;9.944;2023-05-10T15:22:59;16.30;99.90
5457;DHT22;2751;49.802;9.944;2023-05-10T15:25:26;16.30;99.90
5457;DHT22;2751;49.802;9.944;2023-05-10T15:27:54;16.30;99.90
5457;DHT22;2751;49.802;9.944;2023-05-10T15:30:21;16.30;99.90
5457;DHT22;2751;49.802;9.944;2023-05-10T15:32:48;16.40;99.90
5457;DHT22;2751;49.802;9.944;2023-05-10T15:35:16;16.40;99.90
5457;DHT22;2751;49.802;9.944;2023-05-10T15:37:43;16.50;99.90
5457;DHT22;2751;49.802;9.944;2023-05-10T15:40:11;16.60;99.90
5457;DHT22;2751;49.802;9.944;2023-05-10T15:42:38;16.60;99.90
5457;DHT22;2751;49.802;9.944;2023-05-10T15:45:05;16.60;99.90
5457;DHT22;2751;49.802;9.944;2023-05-10T15:47:32;16.60;99.90
5457;DHT22;2751;49.802;9.944;2023-05-10T15:49:59;16.60;99.90
5457;DHT22;2751;49.802;9.944;2023-05-10T15:52:28;16.70;99.90
5457;DHT22;2751;49.802;9.944;2023-05-10T15:54:54;16.60;99.90
5457;DHT22;2751;49.802;9.944;2023-05-10T15:57:21;16.60;99.90
5457;DHT22;2751;49.802;9.944;2023-05-10T15:59:48;16.60;99.90
5457;DHT22;2751;49.802;9.944;2023-05-10T16:02:16;16.70;99.90
5457;DHT22;2751;49.802;9.944;2023-05-10T16:04:44;16.90;99.90
5457;DHT22;2751;49.802;9.944;2023-05-10T16:07:10;16.90;99.90
5457;DHT22;2751;49.802;9.944;2023-05-10T16:09:39;16.90;99.90
5457;DHT22;2751;49.802;9.944;2023-05-10T16:12:07;17.00;99.90
5457;DHT22;2751;49.802;9.944;2023-05-10T16:14:34;17.10;99.90